sensor_id;sensor_type;location;lat;lon;timestamp;pressure;altitude;pressure_sealevel;temperature;humidity
50282;BME280;36176;51.506;10.272;2023-02-28T00:01:12;100821.50;;;-2.08;73.19
50282;BME280;36176;51.506;10.272;2023-02-28T00:03:40;100824.22;;;-2.04;73.06
50282;BME280;36176;51.506;10.272;2023-02-28T00:06:07;100820.75;;;-2.04;73.65
50282;BME280;36176;51.506;10.272;2023-02-28T00:08:37;100824.22;;;-2.04;73.73
50282;BME280;36176;51.506;10.272;2023-02-28T00:11:06;100823.53;;;-1.98;73.54
50282;BME280;36176;51.506;10.272;2023-02-28T00:13:37;100830.50;;;-1.96;73.27
50282;BME280;36176;51.506;10.272;2023-02-28T00:16:14;100823.66;;;-1.92;73.56
50282;BME280;36176;51.506;10.272;2023-02-28T00:18:41;100824.56;;;-1.91;73.36
50282;BME280;36176;51.506;10.272;2023-02-28T00:21:09;100823.66;;;-1.92;73.20
50282;BME280;36176;51.506;10.272;2023-02-28T00:23:36;100828.09;;;-1.88;73.07
50282;BME280;36176;51.506;10.272;2023-02-28T00:26:03;100828.16;;;-1.85;73.57
50282;BME280;36176;51.506;10.272;2023-02-28T00:28:30;100825.69;;;-1.80;72.93
50282;BME280;36176;51.506;10.272;2023-02-28T00:30:57;100824.78;;;-1.82;73.52
50282;BME280;36176;51.506;10.272;2023-02-28T00:33:24;100822.06;;;-1.87;73.88
50282;BME280;36176;51.506;10.272;2023-02-28T00:35:51;100826.34;;;-1.89;73.45
50282;BME280;36176;51.506;10.272;2023-02-28T00:38:18;100828.09;;;-1.88;74.29
50282;BME280;36176;51.506;10.272;2023-02-28T00:40:45;100822.84;;;-1.91;74.47
50282;BME280;36176;51.506;10.272;2023-02-28T00:43:12;100831.56;;;-1.89;74.36
50282;BME280;36176;51.506;10.272;2023-02-28T00:45:39;100834.22;;;-1.86;73.82
50282;BME280;36176;51.506;10.272;2023-02-28T00:48:06;100827.34;;;-1.84;74.37
50282;BME280;36176;51.506;10.272;2023-02-28T00:50:33;100825.56;;;-1.85;74.71
50282;BME280;36176;51.506;10.272;2023-02-28T00:53:00;100829.78;;;-1.90;74.70
50282;BME280;36176;51.506;10.272;2023-02-28T00:55:27;100825.44;;;-1.91;74.70
50282;BME280;36176;51.506;10.272;2023-02-28T00:57:53;100821.00;;;-1.95;75.75
50282;BME280;36176;51.506;10.272;2023-02-28T01:00:21;100831.31;;;-1.98;75.35
50282;BME280;36176;51.506;10.272;2023-02-28T01:02:48;100832.19;;;-1.98;75.74
50282;BME280;36176;51.506;10.272;2023-02-28T01:05:15;100828.84;;;-1.92;74.98
50282;BME280;36176;51.506;10.272;2023-02-28T01:07:42;100827.19;;;-1.90;75.62
50282;BME280;36176;51.506;10.272;2023-02-28T01:10:09;100823.81;;;-1.86;75.72
50282;BME280;36176;51.506;10.272;2023-02-28T01:12:36;100820.38;;;-1.85;75.65
50282;BME280;36176;51.506;10.272;2023-02-28T01:15:04;100820.38;;;-1.85;74.58
50282;BME280;36176;51.506;10.272;2023-02-28T01:17:31;100812.59;;;-1.85;75.41
50282;BME280;36176;51.506;10.272;2023-02-28T01:19:58;100812.56;;;-1.86;75.64
50282;BME280;36176;51.506;10.272;2023-02-28T01:22:25;100810.72;;;-1.90;75.29
50282;BME280;36176;51.506;10.272;2023-02-28T01:24:52;100813.28;;;-1.92;75.53
50282;BME280;36176;51.506;10.272;2023-02-28T01:27:19;100808.75;;;-1.99;75.32
50282;BME280;36176;51.506;10.272;2023-02-28T01:29:46;100810.44;;;-2.01;76.43
50282;BME280;36176;51.506;10.272;2023-02-28T01:32:13;100812.16;;;-2.03;75.61
50282;BME280;36176;51.506;10.272;2023-02-28T01:34:41;100813.81;;;-2.05;75.74
50282;BME280;36176;51.506;10.272;2023-02-28T01:37:08;100809.44;;;-2.06;76.38
50282;BME280;36176;51.506;10.272;2023-02-28T01:39:34;100805.16;;;-2.06;76.75
50282;BME280;36176;51.506;10.272;2023-02-28T01:42:01;100815.53;;;-2.06;76.22
50282;BME280;36176;51.506;10.272;2023-02-28T01:47:36;100802.56;;;-2.06;77.92
50282;BME280;36176;51.506;10.272;2023-02-28T01:50:09;100803.44;;;-2.05;77.12
50282;BME280;36176;51.506;10.272;2023-02-28T01:52:36;100795.66;;;-2.04;77.64
50282;BME280;36176;51.506;10.272;2023-02-28T01:55:05;100793.97;;;-2.03;77.55
50282;BME280;36176;51.506;10.272;2023-02-28T01:57:43;100802.66;;;-2.01;77.64
50282;BME280;36176;51.506;10.272;2023-02-28T02:00:15;100798.25;;;-2.04;77.77
50282;BME280;36176;51.506;10.272;2023-02-28T02:02:45;100799.91;;;-2.07;77.67
50282;BME280;36176;51.506;10.272;2023-02-28T02:05:17;100798.25;;;-2.05;77.17
50282;BME280;36176;51.506;10.272;2023-02-28T02:07:46;100798.34;;;-2.01;77.46
50282;BME280;36176;51.506;10.272;2023-02-28T02:10:20;100799.34;;;-1.96;77.58
50282;BME280;36176;51.506;10.272;2023-02-28T02:15:41;100796.00;;;-1.91;77.91
50282;BME280;36176;51.506;10.272;2023-02-28T02:21:25;100787.50;;;-1.84;77.36
50282;BME280;36176;51.506;10.272;2023-02-28T02:26:58;100784.00;;;-1.85;77.37
50282;BME280;36176;51.506;10.272;2023-02-28T02:29:35;100784.09;;;-1.82;77.13
50282;BME280;36176;51.506;10.272;2023-02-28T02:32:10;100783.25;;;-1.81;76.66
50282;BME280;36176;51.506;10.272;2023-02-28T02:35:00;100783.25;;;-1.81;77.30
50282;BME280;36176;51.506;10.272;2023-02-28T02:37:43;100785.88;;;-1.79;77.42
50282;BME280;36176;51.506;10.272;2023-02-28T02:40:19;100789.50;;;-1.73;77.55
50282;BME280;36176;51.506;10.272;2023-02-28T02:45:48;100788.72;;;-1.68;77.26
50282;BME280;36176;51.506;10.272;2023-02-28T02:48:19;100786.94;;;-1.71;78.13
50282;BME280;36176;51.506;10.272;2023-02-28T02:50:55;100785.25;;;-1.69;78.10
50282;BME280;36176;51.506;10.272;2023-02-28T02:53:36;100789.59;;;-1.68;78.38
50282;BME280;36176;51.506;10.272;2023-02-28T02:56:05;100782.72;;;-1.66;77.89
50282;BME280;36176;51.506;10.272;2023-02-28T02:58:37;100788.88;;;-1.62;77.84
50282;BME280;36176;51.506;10.272;2023-02-28T03:01:15;100784.50;;;-1.63;78.44
50282;BME280;36176;51.506;10.272;2023-02-28T03:03:44;100789.88;;;-1.56;78.19
50282;BME280;36176;51.506;10.272;2023-02-28T03:06:12;100783.97;;;-1.50;77.74
50282;BME280;36176;51.506;10.272;2023-02-28T03:08:39;100788.28;;;-1.51;77.91
50282;BME280;36176;51.506;10.272;2023-02-28T03:11:12;100788.28;;;-1.51;77.21
50282;BME280;36176;51.506;10.272;2023-02-28T03:16:54;100789.09;;;-1.53;77.89
50282;BME280;36176;51.506;10.272;2023-02-28T03:19:31;100786.50;;;-1.53;77.42
50282;BME280;36176;51.506;10.272;2023-02-28T03:27:29;100785.47;;;-1.60;76.72
50282;BME280;36176;51.506;10.272;2023-02-28T03:30:04;100792.47;;;-1.56;78.22
50282;BME280;36176;51.506;10.272;2023-02-28T03:32:40;100788.09;;;-1.58;77.98
50282;BME280;36176;51.506;10.272;2023-02-28T03:37:42;100788.84;;;-1.64;77.71
50282;BME280;36176;51.506;10.272;2023-02-28T03:40:16;100792.28;;;-1.65;78.43
50282;BME280;36176;51.506;10.272;2023-02-28T03:42:46;100792.28;;;-1.65;78.43
50282;BME280;36176;51.506;10.272;2023-02-28T03:45:24;100795.00;;;-1.60;78.38
50282;BME280;36176;51.506;10.272;2023-02-28T03:48:00;100796.78;;;-1.58;78.34
50282;BME280;36176;51.506;10.272;2023-02-28T03:50:41;100790.69;;;-1.58;78.71
50282;BME280;36176;51.506;10.272;2023-02-28T03:53:19;100795.06;;;-1.57;77.77
50282;BME280;36176;51.506;10.272;2023-02-28T03:55:55;100795.06;;;-1.57;77.75
50282;BME280;36176;51.506;10.272;2023-02-28T03:58:55;100805.47;;;-1.57;77.52
50282;BME280;36176;51.506;10.272;2023-02-28T04:01:31;100799.44;;;-1.55;77.68
50282;BME280;36176;51.506;10.272;2023-02-28T04:04:01;100797.78;;;-1.53;77.38
50282;BME280;36176;51.506;10.272;2023-02-28T04:06:31;100794.19;;;-1.58;78.37
50282;BME280;36176;51.506;10.272;2023-02-28T04:08:59;100795.00;;;-1.60;77.13
50282;BME280;36176;51.506;10.272;2023-02-28T04:11:44;100797.63;;;-1.59;77.76
50282;BME280;36176;51.506;10.272;2023-02-28T04:14:12;100792.34;;;-1.62;78.16
50282;BME280;36176;51.506;10.272;2023-02-28T04:16:41;100793.22;;;-1.61;77.29
50282;BME280;36176;51.506;10.272;2023-02-28T04:19:09;100796.69;;;-1.61;77.58
50282;BME280;36176;51.506;10.272;2023-02-28T04:21:42;100798.38;;;-1.63;77.13
50282;BME280;36176;51.506;10.272;2023-02-28T04:24:11;100793.22;;;-1.61;78.45
50282;BME280;36176;51.506;10.272;2023-02-28T04:26:50;100790.69;;;-1.60;78.86
50282;BME280;36176;51.506;10.272;2023-02-28T04:29:25;100797.59;;;-1.60;78.16
50282;BME280;36176;51.506;10.272;2023-02-28T04:31:53;100797.66;;;-1.57;78.28
50282;BME280;36176;51.506;10.272;2023-02-28T04:34:20;100808.97;;;-1.55;78.77
50282;BME280;36176;51.506;10.272;2023-02-28T04:36:48;100811.59;;;-1.54;78.41
50282;BME280;36176;51.506;10.272;2023-02-28T04:39:36;100805.53;;;-1.54;79.55
50282;BME280;36176;51.506;10.272;2023-02-28T04:42:04;100809.81;;;-1.56;79.21
50282;BME280;36176;51.506;10.272;2023-02-28T04:44:31;100802.88;;;-1.56;79.76
50282;BME280;36176;51.506;10.272;2023-02-28T04:46:58;100807.19;;;-1.58;79.73
50282;BME280;36176;51.506;10.272;2023-02-28T04:49:25;100800.19;;;-1.60;80.18
50282;BME280;36176;51.506;10.272;2023-02-28T04:51:52;100790.69;;;-1.58;80.36
50282;BME280;36176;51.506;10.272;2023-02-28T04:54:19;100797.50;;;-1.63;80.58
50282;BME280;36176;51.506;10.272;2023-02-28T04:56:46;100802.88;;;-1.56;79.74
50282;BME280;36176;51.506;10.272;2023-02-28T04:59:16;100805.59;;;-1.51;79.64
50282;BME280;36176;51.506;10.272;2023-02-28T05:01:48;100804.81;;;-1.47;79.67
50282;BME280;36176;51.506;10.272;2023-02-28T05:04:15;100804.06;;;-1.43;78.76
50282;BME280;36176;51.506;10.272;2023-02-28T05:06:42;100803.09;;;-1.46;78.97
50282;BME280;36176;51.506;10.272;2023-02-28T05:09:09;100805.69;;;-1.48;79.24
50282;BME280;36176;51.506;10.272;2023-02-28T05:11:39;100810.84;;;-1.50;79.46
50282;BME280;36176;51.506;10.272;2023-02-28T05:14:12;100809.09;;;-1.49;78.70
50282;BME280;36176;51.506;10.272;2023-02-28T05:16:39;100817.81;;;-1.47;78.65
50282;BME280;36176;51.506;10.272;2023-02-28T05:19:06;100821.94;;;-1.57;79.07
50282;BME280;36176;51.506;10.272;2023-02-28T05:21:36;100817.44;;;-1.64;80.04
50282;BME280;36176;51.506;10.272;2023-02-28T05:24:14;100812.84;;;-1.74;80.47
50282;BME280;36176;51.506;10.272;2023-02-28T05:26:42;100816.41;;;-1.71;80.01
50282;BME280;36176;51.506;10.272;2023-02-28T05:29:10;100813.78;;;-1.72;79.88
50282;BME280;36176;51.506;10.272;2023-02-28T05:31:37;100817.19;;;-1.75;79.82
50282;BME280;36176;51.506;10.272;2023-02-28T05:34:04;100813.66;;;-1.77;79.01
50282;BME280;36176;51.506;10.272;2023-02-28T05:36:32;100827.59;;;-1.73;80.11
50282;BME280;36176;51.506;10.272;2023-02-28T05:38:59;100825.88;;;-1.73;79.74
50282;BME280;36176;51.506;10.272;2023-02-28T05:41:26;100822.38;;;-1.75;80.25
50282;BME280;36176;51.506;10.272;2023-02-28T05:43:54;100828.22;;;-1.83;79.74
50282;BME280;36176;51.506;10.272;2023-02-28T05:46:21;100834.97;;;-1.91;80.33
50282;BME280;36176;51.506;10.272;2023-02-28T05:48:48;100837.44;;;-1.96;80.24
50282;BME280;36176;51.506;10.272;2023-02-28T05:51:15;100831.31;;;-1.98;80.75
50282;BME280;36176;51.506;10.272;2023-02-28T05:53:43;100829.53;;;-2.01;81.12
50282;BME280;36176;51.506;10.272;2023-02-28T05:56:10;100833.69;;;-2.07;81.63
50282;BME280;36176;51.506;10.272;2023-02-28T05:58:37;100833.63;;;-2.09;80.82
50282;BME280;36176;51.506;10.272;2023-02-28T06:01:33;100836.97;;;-2.15;81.99
50282;BME280;36176;51.506;10.272;2023-02-28T06:04:02;100835.19;;;-2.16;81.75
50282;BME280;36176;51.506;10.272;2023-02-28T06:06:29;100837.81;;;-2.14;81.80
50282;BME280;36176;51.506;10.272;2023-02-28T06:08:57;100844.81;;;-2.11;82.18
50282;BME280;36176;51.506;10.272;2023-02-28T06:11:24;100846.53;;;-2.12;81.86
50282;BME280;36176;51.506;10.272;2023-02-28T06:13:58;100849.13;;;-2.12;82.78
50282;BME280;36176;51.506;10.272;2023-02-28T06:16:30;100855.09;;;-2.16;82.73
50282;BME280;36176;51.506;10.272;2023-02-28T06:18:59;100847.28;;;-2.18;82.63
50282;BME280;36176;51.506;10.272;2023-02-28T06:21:27;100845.63;;;-2.14;82.86
50282;BME280;36176;51.506;10.272;2023-02-28T06:23:56;100854.28;;;-2.14;83.66
50282;BME280;36176;51.506;10.272;2023-02-28T06:26:24;100852.47;;;-2.16;82.65
50282;BME280;36176;51.506;10.272;2023-02-28T06:28:51;100861.25;;;-2.12;82.96
50282;BME280;36176;51.506;10.272;2023-02-28T06:31:19;100851.72;;;-2.12;83.11
50282;BME280;36176;51.506;10.272;2023-02-28T06:33:46;100853.47;;;-2.11;82.73
50282;BME280;36176;51.506;10.272;2023-02-28T06:36:14;100857.88;;;-2.08;82.48
50282;BME280;36176;51.506;10.272;2023-02-28T06:38:42;100859.56;;;-2.10;83.09
50282;BME280;36176;51.506;10.272;2023-02-28T06:41:10;100863.03;;;-2.10;82.90
50282;BME280;36176;51.506;10.272;2023-02-28T06:43:40;100856.19;;;-2.08;83.19
50282;BME280;36176;51.506;10.272;2023-02-28T06:46:11;100870.91;;;-2.07;82.70
50282;BME280;36176;51.506;10.272;2023-02-28T06:48:38;100869.34;;;-2.00;83.65
50282;BME280;36176;51.506;10.272;2023-02-28T06:51:11;100867.00;;;-1.91;83.10
50282;BME280;36176;51.506;10.272;2023-02-28T06:53:40;100873.38;;;-1.78;83.58
50282;BME280;36176;51.506;10.272;2023-02-28T06:56:09;100873.81;;;-1.61;82.99
50282;BME280;36176;51.506;10.272;2023-02-28T06:58:37;100878.78;;;-1.34;82.28
50282;BME280;36176;51.506;10.272;2023-02-28T07:01:06;100877.28;;;-1.24;82.38
50282;BME280;36176;51.506;10.272;2023-02-28T07:03:35;100876.75;;;-1.10;82.20
50282;BME280;36176;51.506;10.272;2023-02-28T07:06:02;100871.94;;;-0.91;81.52
50282;BME280;36176;51.506;10.272;2023-02-28T07:08:30;100879.78;;;-0.49;80.86
50282;BME280;36176;51.506;10.272;2023-02-28T07:10:58;100883.81;;;0.28;79.69
50282;BME280;36176;51.506;10.272;2023-02-28T07:13:25;100885.28;;;1.23;77.37
50282;BME280;36176;51.506;10.272;2023-02-28T07:15:57;100890.16;;;2.50;73.65
50282;BME280;36176;51.506;10.272;2023-02-28T07:18:25;100881.25;;;3.75;70.98
50282;BME280;36176;51.506;10.272;2023-02-28T07:20:52;100881.38;;;4.38;66.96
50282;BME280;36176;51.506;10.272;2023-02-28T07:23:20;100881.34;;;4.93;64.46
50282;BME280;36176;51.506;10.272;2023-02-28T07:25:47;100888.28;;;5.29;62.33
50282;BME280;36176;51.506;10.272;2023-02-28T07:28:14;100888.19;;;5.52;61.33
50282;BME280;36176;51.506;10.272;2023-02-28T07:30:41;100889.91;;;5.60;60.41
50282;BME280;36176;51.506;10.272;2023-02-28T07:33:09;100892.56;;;5.58;58.58
50282;BME280;36176;51.506;10.272;2023-02-28T07:35:36;100890.06;;;5.17;59.62
50282;BME280;36176;51.506;10.272;2023-02-28T07:38:03;100891.69;;;5.61;58.84
50282;BME280;36176;51.506;10.272;2023-02-28T07:40:30;100888.84;;;6.01;57.69
50282;BME280;36176;51.506;10.272;2023-02-28T07:42:59;100881.66;;;6.27;55.81
50282;BME280;36176;51.506;10.272;2023-02-28T07:45:27;100882.31;;;6.62;55.70
50282;BME280;36176;51.506;10.272;2023-02-28T07:47:55;100886.09;;;7.22;54.09
50282;BME280;36176;51.506;10.272;2023-02-28T07:50:22;100889.09;;;7.69;50.22
50282;BME280;36176;51.506;10.272;2023-02-28T07:52:52;46412.03;;;-145.31;40.92
50282;BME280;36176;51.506;10.272;2023-02-28T07:55:19;100885.75;;;8.77;47.32
50282;BME280;36176;51.506;10.272;2023-02-28T07:57:46;100890.09;;;9.29;46.82
50282;BME280;36176;51.506;10.272;2023-02-28T08:00:13;100891.13;;;9.64;43.19
50282;BME280;36176;51.506;10.272;2023-02-28T08:02:40;100897.19;;;9.71;42.86
50282;BME280;36176;51.506;10.272;2023-02-28T08:05:07;100885.47;;;9.83;42.88
50282;BME280;36176;51.506;10.272;2023-02-28T08:07:35;100891.72;;;10.17;41.65
50282;BME280;36176;51.506;10.272;2023-02-28T08:10:02;100886.56;;;10.52;41.37
50282;BME280;36176;51.506;10.272;2023-02-28T08:12:29;100887.44;;;10.52;37.45
50282;BME280;36176;51.506;10.272;2023-02-28T08:14:56;100890.50;;;9.93;36.35
50282;BME280;36176;51.506;10.272;2023-02-28T08:17:23;100881.19;;;9.75;38.13
50282;BME280;36176;51.506;10.272;2023-02-28T08:19:50;100885.94;;;10.01;37.57
50282;BME280;36176;51.506;10.272;2023-02-28T08:22:17;100886.81;;;10.41;37.01
50282;BME280;36176;51.506;10.272;2023-02-28T08:24:44;100889.66;;;10.33;36.29
50282;BME280;36176;51.506;10.272;2023-02-28T08:27:11;100882.50;;;10.73;37.22
50282;BME280;36176;51.506;10.272;2023-02-28T08:29:38;100879.00;;;11.05;35.37
50282;BME280;36176;51.506;10.272;2023-02-28T08:32:06;100876.66;;;10.94;32.81
50282;BME280;36176;51.506;10.272;2023-02-28T08:34:46;100885.09;;;10.74;33.28
50282;BME280;36176;51.506;10.272;2023-02-28T08:37:14;100881.81;;;10.27;34.28
50282;BME280;36176;51.506;10.272;2023-02-28T08:39:40;100884.09;;;10.44;35.43
50282;BME280;36176;51.506;10.272;2023-02-28T08:42:07;100879.13;;;10.66;33.12
50282;BME280;36176;51.506;10.272;2023-02-28T08:44:34;100882.44;;;10.38;31.55
50282;BME280;36176;51.506;10.272;2023-02-28T08:47:02;100877.50;;;9.84;32.33
50282;BME280;36176;51.506;10.272;2023-02-28T08:49:29;100891.13;;;9.66;32.66
50282;BME280;36176;51.506;10.272;2023-02-28T08:51:55;100886.00;;;9.98;33.14
50282;BME280;36176;51.506;10.272;2023-02-28T08:54:24;100881.13;;;10.17;31.48
50282;BME280;36176;51.506;10.272;2023-02-28T08:56:51;100887.28;;;10.19;32.29
50282;BME280;36176;51.506;10.272;2023-02-28T08:59:18;100889.06;;;10.19;31.31
50282;BME280;36176;51.506;10.272;2023-02-28T09:01:45;100890.28;;;10.04;32.42
50282;BME280;36176;51.506;10.272;2023-02-28T09:04:12;100881.31;;;10.10;30.97
50282;BME280;36176;51.506;10.272;2023-02-28T09:06:44;100878.00;;;10.40;30.68
50282;BME280;36176;51.506;10.272;2023-02-28T09:09:11;100880.31;;;10.89;30.45
50282;BME280;36176;51.506;10.272;2023-02-28T09:11:38;100880.78;;;10.70;30.04
50282;BME280;36176;51.506;10.272;2023-02-28T09:14:05;100880.06;;;9.87;31.05
50282;BME280;36176;51.506;10.272;2023-02-28T09:16:34;100880.53;;;9.22;30.64
50282;BME280;36176;51.506;10.272;2023-02-28T09:19:02;100890.78;;;8.91;32.20
50282;BME280;36176;51.506;10.272;2023-02-28T09:21:29;100886.63;;;8.76;32.17
50282;BME280;36176;51.506;10.272;2023-02-28T09:23:56;100891.22;;;8.65;31.42
50282;BME280;36176;51.506;10.272;2023-02-28T09:26:26;100904.13;;;8.83;32.15
50282;BME280;36176;51.506;10.272;2023-02-28T09:29:04;100895.25;;;8.87;31.63
50282;BME280;36176;51.506;10.272;2023-02-28T09:31:31;100898.09;;;8.75;31.26
50282;BME280;36176;51.506;10.272;2023-02-28T09:33:58;100900.94;;;8.64;31.97
50282;BME280;36176;51.506;10.272;2023-02-28T09:36:27;100891.75;;;8.28;32.35
50282;BME280;36176;51.506;10.272;2023-02-28T09:39:10;100906.09;;;8.72;32.84
50282;BME280;36176;51.506;10.272;2023-02-28T09:41:40;100892.94;;;8.67;32.03
50282;BME280;36176;51.506;10.272;2023-02-28T09:44:20;100900.16;;;8.58;32.79
50282;BME280;36176;51.506;10.272;2023-02-28T09:46:51;100897.63;;;9.03;33.20
50282;BME280;36176;51.506;10.272;2023-02-28T09:49:23;100890.78;;;9.39;33.11
50282;BME280;36176;51.506;10.272;2023-02-28T09:52:02;100893.25;;;9.48;32.09
50282;BME280;36176;51.506;10.272;2023-02-28T09:54:32;100892.28;;;9.06;32.50
50282;BME280;36176;51.506;10.272;2023-02-28T09:57:15;100895.84;;;9.50;32.16
50282;BME280;36176;51.506;10.272;2023-02-28T10:05:04;100895.13;;;9.42;31.77
50282;BME280;36176;51.506;10.272;2023-02-28T10:10:39;100903.56;;;9.14;31.34
50282;BME280;36176;51.506;10.272;2023-02-28T10:13:16;100890.34;;;9.14;31.47
50282;BME280;36176;51.506;10.272;2023-02-28T10:15:47;100904.72;;;9.01;32.05
50282;BME280;36176;51.506;10.272;2023-02-28T10:18:22;100888.75;;;8.56;32.14
50282;BME280;36176;51.506;10.272;2023-02-28T10:20:51;100896.34;;;8.17;32.01
50282;BME280;36176;51.506;10.272;2023-02-28T10:26:01;100887.84;;;7.96;32.87
50282;BME280;36176;51.506;10.272;2023-02-28T10:28:30;100899.47;;;7.80;34.04
50282;BME280;36176;51.506;10.272;2023-02-28T10:30:58;100892.19;;;7.31;34.92
50282;BME280;36176;51.506;10.272;2023-02-28T10:33:30;100880.13;;;7.07;34.79
50282;BME280;36176;51.506;10.272;2023-02-28T10:35:58;100881.81;;;7.11;35.78
50282;BME280;36176;51.506;10.272;2023-02-28T10:38:37;100885.50;;;6.97;35.69
50282;BME280;36176;51.506;10.272;2023-02-28T10:41:07;100872.59;;;6.65;36.86
50282;BME280;36176;51.506;10.272;2023-02-28T10:43:34;100879.09;;;6.23;37.60
50282;BME280;36176;51.506;10.272;2023-02-28T10:48:44;100881.84;;;6.06;38.95
50282;BME280;36176;51.506;10.272;2023-02-28T10:51:13;100876.63;;;5.96;39.44
50282;BME280;36176;51.506;10.272;2023-02-28T10:56:26;100872.19;;;6.06;38.83
50282;BME280;36176;51.506;10.272;2023-02-28T11:04:32;100875.13;;;5.32;39.03
50282;BME280;36176;51.506;10.272;2023-02-28T11:09:33;100866.28;;;5.57;41.17
50282;BME280;36176;51.506;10.272;2023-02-28T11:12:20;100865.34;;;5.67;40.00
50282;BME280;36176;51.506;10.272;2023-02-28T11:14:54;100862.59;;;5.88;40.54
50282;BME280;36176;51.506;10.272;2023-02-28T11:17:28;100862.53;;;6.07;40.35
50282;BME280;36176;51.506;10.272;2023-02-28T11:19:59;100854.56;;;6.16;38.76
50282;BME280;36176;51.506;10.272;2023-02-28T11:22:36;100851.13;;;6.06;39.79
50282;BME280;36176;51.506;10.272;2023-02-28T11:25:15;100856.38;;;6.08;40.83
50282;BME280;36176;51.506;10.272;2023-02-28T11:27:49;100852.94;;;5.96;38.93
50282;BME280;36176;51.506;10.272;2023-02-28T11:30:25;100859.94;;;5.99;39.47
50282;BME280;36176;51.506;10.272;2023-02-28T11:32:53;100850.38;;;5.81;39.29
50282;BME280;36176;51.506;10.272;2023-02-28T11:35:33;100845.91;;;5.91;39.65
50282;BME280;36176;51.506;10.272;2023-02-28T11:38:01;100839.88;;;5.73;39.25
50282;BME280;36176;51.506;10.272;2023-02-28T11:40:36;100853.03;;;5.75;40.18
50282;BME280;36176;51.506;10.272;2023-02-28T11:43:24;100847.56;;;6.10;39.32
50282;BME280;36176;51.506;10.272;2023-02-28T11:49:02;100847.56;;;6.12;39.69
50282;BME280;36176;51.506;10.272;2023-02-28T11:51:35;100839.66;;;6.15;39.48
50282;BME280;36176;51.506;10.272;2023-02-28T12:00:03;100831.78;;;6.10;39.63
50282;BME280;36176;51.506;10.272;2023-02-28T12:02:51;100841.41;;;6.14;39.66
50282;BME280;36176;51.506;10.272;2023-02-28T12:05:33;100829.97;;;6.20;40.08
50282;BME280;36176;51.506;10.272;2023-02-28T12:11:11;100829.72;;;6.51;40.49
50282;BME280;36176;51.506;10.272;2023-02-28T12:19:25;100812.38;;;6.30;39.08
50282;BME280;36176;51.506;10.272;2023-02-28T12:24:48;100812.63;;;5.91;40.55
50282;BME280;36176;51.506;10.272;2023-02-28T12:27:22;100813.47;;;5.90;39.45
50282;BME280;36176;51.506;10.272;2023-02-28T12:30:17;100814.34;;;5.99;38.56
50282;BME280;36176;51.506;10.272;2023-02-28T12:32:54;100799.50;;;5.85;39.51
50282;BME280;36176;51.506;10.272;2023-02-28T12:35:26;100807.34;;;5.91;40.51
50282;BME280;36176;51.506;10.272;2023-02-28T12:38:04;100804.56;;;6.14;40.12
50282;BME280;36176;51.506;10.272;2023-02-28T12:40:43;100804.53;;;6.19;38.99
50282;BME280;36176;51.506;10.272;2023-02-28T12:43:12;100802.78;;;6.20;39.91
50282;BME280;36176;51.506;10.272;2023-02-28T12:45:50;100807.34;;;5.96;39.83
50282;BME280;36176;51.506;10.272;2023-02-28T12:48:40;100805.69;;;5.73;40.85
50282;BME280;36176;51.506;10.272;2023-02-28T12:51:09;100809.22;;;5.69;41.79
50282;BME280;36176;51.506;10.272;2023-02-28T12:59:20;100796.94;;;5.71;41.12
50282;BME280;36176;51.506;10.272;2023-02-28T13:09:31;100782.91;;;5.75;41.27
50282;BME280;36176;51.506;10.272;2023-02-28T13:11:59;100786.38;;;5.79;41.74
50282;BME280;36176;51.506;10.272;2023-02-28T13:14:28;100788.09;;;5.82;41.67
50282;BME280;36176;51.506;10.272;2023-02-28T13:19:56;100783.75;;;5.74;41.92
50282;BME280;36176;51.506;10.272;2023-02-28T13:22:37;100775.06;;;5.68;41.59
50282;BME280;36176;51.506;10.272;2023-02-28T13:27:54;100777.78;;;5.54;41.75
50282;BME280;36176;51.506;10.272;2023-02-28T13:33:32;100775.25;;;5.34;40.80
50282;BME280;36176;51.506;10.272;2023-02-28T13:38:50;100778.06;;;4.85;42.83
50282;BME280;36176;51.506;10.272;2023-02-28T13:41:41;100771.13;;;4.70;42.92
50282;BME280;36176;51.506;10.272;2023-02-28T13:44:16;100764.97;;;4.66;42.96
50282;BME280;36176;51.506;10.272;2023-02-28T13:51:53;100764.03;;;4.94;42.30
50282;BME280;36176;51.506;10.272;2023-02-28T13:57:50;100761.50;;;4.67;43.41
50282;BME280;36176;51.506;10.272;2023-02-28T14:00:31;100752.78;;;4.53;43.15
50282;BME280;36176;51.506;10.272;2023-02-28T14:03:30;100751.91;;;4.42;43.22
50282;BME280;36176;51.506;10.272;2023-02-28T14:09:21;100733.56;;;4.36;43.73
50282;BME280;36176;51.506;10.272;2023-02-28T14:11:50;100742.31;;;4.29;44.12
50282;BME280;36176;51.506;10.272;2023-02-28T14:17:15;100742.34;;;4.02;44.38
50282;BME280;36176;51.506;10.272;2023-02-28T14:19:45;100741.44;;;3.99;44.44
50282;BME280;36176;51.506;10.272;2023-02-28T14:25:23;100743.19;;;3.84;45.33
50282;BME280;36176;51.506;10.272;2023-02-28T14:31:17;100737.06;;;3.79;45.23
50282;BME280;36176;51.506;10.272;2023-02-28T14:33:59;100742.31;;;3.75;46.05
50282;BME280;36176;51.506;10.272;2023-02-28T14:36:36;100740.56;;;3.72;45.82
50282;BME280;36176;51.506;10.272;2023-02-28T14:39:11;100741.44;;;3.68;45.85
50282;BME280;36176;51.506;10.272;2023-02-28T14:41:42;100745.78;;;3.58;45.56
50282;BME280;36176;51.506;10.272;2023-02-28T14:44:18;100746.66;;;3.53;45.91
50282;BME280;36176;51.506;10.272;2023-02-28T14:46:48;100731.78;;;3.52;46.98
50282;BME280;36176;51.506;10.272;2023-02-28T14:49:23;100737.91;;;3.54;47.44
50282;BME280;36176;51.506;10.272;2023-02-28T14:52:23;100737.94;;;3.52;46.89
50282;BME280;36176;51.506;10.272;2023-02-28T14:55:03;100736.19;;;3.50;46.83
50282;BME280;36176;51.506;10.272;2023-02-28T14:57:33;100738.78;;;3.48;47.17
50282;BME280;36176;51.506;10.272;2023-02-28T15:02:39;100737.03;;;3.38;46.18